sensor_id;sensor_type;location;lat;lon;timestamp;pressure;altitude;pressure_sealevel;temperature;humidity
78485;BME280;67773;50.806;8.776;2023-04-22T00:00:09;99006.97;;;9.65;90.56
78485;BME280;67773;50.806;8.776;2023-04-22T00:02:36;99007.06;;;9.64;90.23
78485;BME280;67773;50.806;8.776;2023-04-22T00:05:03;99000.25;;;9.60;90.60
78485;BME280;67773;50.806;8.776;2023-04-22T00:07:29;99003.56;;;9.63;90.67
78485;BME280;67773;50.806;8.776;2023-04-22T00:09:54;99013.81;;;9.69;90.31
78485;BME280;67773;50.806;8.776;2023-04-22T00:12:19;99012.34;;;9.64;90.07
78485;BME280;67773;50.806;8.776;2023-04-22T00:14:46;99015.19;;;9.61;89.70
78485;BME280;67773;50.806;8.776;2023-04-22T00:17:11;98992.44;;;9.57;90.34
78485;BME280;67773;50.806;8.776;2023-04-22T00:19:36;99010.84;;;9.60;90.09
78485;BME280;67773;50.806;8.776;2023-04-22T00:22:02;98999.38;;;9.59;89.96
78485;BME280;67773;50.806;8.776;2023-04-22T00:24:28;98999.19;;;9.62;89.94
78485;BME280;67773;50.806;8.776;2023-04-22T00:26:54;98996.75;;;9.59;90.35
78485;BME280;67773;50.806;8.776;2023-04-22T00:29:19;98995.59;;;9.63;90.26
78485;BME280;67773;50.806;8.776;2023-04-22T00:31:44;98981.75;;;9.58;89.95
78485;BME280;67773;50.806;8.776;2023-04-22T00:34:10;98996.66;;;9.61;89.79
78485;BME280;67773;50.806;8.776;2023-04-22T00:36:35;99000.59;;;9.53;90.00
78485;BME280;67773;50.806;8.776;2023-04-22T00:39:00;98987.09;;;9.42;90.17
78485;BME280;67773;50.806;8.776;2023-04-22T00:41:26;98987.75;;;9.46;89.83
78485;BME280;67773;50.806;8.776;2023-04-22T00:43:52;98994.78;;;9.47;90.23
78485;BME280;67773;50.806;8.776;2023-04-22T00:46:18;99001.09;;;9.44;89.72
78485;BME280;67773;50.806;8.776;2023-04-22T00:48:45;98998.88;;;9.37;89.88
78485;BME280;67773;50.806;8.776;2023-04-22T00:51:10;99000.44;;;9.41;89.67
78485;BME280;67773;50.806;8.776;2023-04-22T00:53:35;99004.13;;;9.38;89.64
78485;BME280;67773;50.806;8.776;2023-04-22T00:56:01;99002.66;;;9.33;90.17
78485;BME280;67773;50.806;8.776;2023-04-22T00:58:28;99016.47;;;9.38;89.87
78485;BME280;67773;50.806;8.776;2023-04-22T01:00:54;99007.69;;;9.37;90.23
78485;BME280;67773;50.806;8.776;2023-04-22T01:03:19;99013.91;;;9.36;90.13
78485;BME280;67773;50.806;8.776;2023-04-22T01:05:47;99002.66;;;9.33;90.03
78485;BME280;67773;50.806;8.776;2023-04-22T01:08:12;99002.00;;;9.29;90.15
78485;BME280;67773;50.806;8.776;2023-04-22T01:10:38;99006.34;;;9.30;90.39
78485;BME280;67773;50.806;8.776;2023-04-22T01:13:04;99004.72;;;9.28;90.66
78485;BME280;67773;50.806;8.776;2023-04-22T01:15:30;99004.53;;;9.31;90.67
78485;BME280;67773;50.806;8.776;2023-04-22T01:17:55;99001.81;;;9.32;90.64
78485;BME280;67773;50.806;8.776;2023-04-22T01:20:21;99000.88;;;9.33;90.51
78485;BME280;67773;50.806;8.776;2023-04-22T01:22:49;99002.84;;;9.30;90.46
78485;BME280;67773;50.806;8.776;2023-04-22T01:25:15;99000.44;;;9.25;90.76
78485;BME280;67773;50.806;8.776;2023-04-22T01:27:41;99001.63;;;9.35;91.08
78485;BME280;67773;50.806;8.776;2023-04-22T01:30:07;98998.03;;;9.36;90.72
78485;BME280;67773;50.806;8.776;2023-04-22T01:32:32;98995.13;;;9.41;90.67
78485;BME280;67773;50.806;8.776;2023-04-22T01:34:58;99003.94;;;9.41;90.78
78485;BME280;67773;50.806;8.776;2023-04-22T01:37:23;99008.28;;;9.42;90.71
78485;BME280;67773;50.806;8.776;2023-04-22T01:39:49;99008.28;;;9.42;90.58
78485;BME280;67773;50.806;8.776;2023-04-22T01:42:14;99005.53;;;9.44;90.74
78485;BME280;67773;50.806;8.776;2023-04-22T01:44:40;99010.75;;;9.45;90.90
78485;BME280;67773;50.806;8.776;2023-04-22T01:47:05;99000.44;;;9.41;90.66
78485;BME280;67773;50.806;8.776;2023-04-22T01:49:31;99008.09;;;9.45;90.91
78485;BME280;67773;50.806;8.776;2023-04-22T01:51:57;99007.16;;;9.46;90.55
78485;BME280;67773;50.806;8.776;2023-04-22T01:54:22;99010.50;;;9.50;90.76
78485;BME280;67773;50.806;8.776;2023-04-22T01:56:50;99007.06;;;9.48;90.07
78485;BME280;67773;50.806;8.776;2023-04-22T01:59:15;98994.00;;;9.45;90.21
78485;BME280;67773;50.806;8.776;2023-04-22T02:01:41;99013.16;;;9.50;90.30
78485;BME280;67773;50.806;8.776;2023-04-22T02:04:06;99012.56;;;9.45;90.32
78485;BME280;67773;50.806;8.776;2023-04-22T02:06:31;99009.06;;;9.44;89.94
78485;BME280;67773;50.806;8.776;2023-04-22T02:08:57;99011.50;;;9.47;90.00
78485;BME280;67773;50.806;8.776;2023-04-22T02:11:22;99017.66;;;9.48;90.04
78485;BME280;67773;50.806;8.776;2023-04-22T02:13:47;99011.69;;;9.44;89.79
78485;BME280;67773;50.806;8.776;2023-04-22T02:16:14;99023.84;;;9.48;90.09
78485;BME280;67773;50.806;8.776;2023-04-22T02:18:39;99023.75;;;9.50;89.60
78485;BME280;67773;50.806;8.776;2023-04-22T02:21:04;99022.09;;;9.47;90.02
78485;BME280;67773;50.806;8.776;2023-04-22T02:23:29;99015.47;;;9.40;89.80
78485;BME280;67773;50.806;8.776;2023-04-22T02:25:55;99025.88;;;9.43;89.70
78485;BME280;67773;50.806;8.776;2023-04-22T02:28:20;99024.09;;;9.44;89.25
78485;BME280;67773;50.806;8.776;2023-04-22T02:30:46;99024.19;;;9.42;89.66
78485;BME280;67773;50.806;8.776;2023-04-22T02:33:11;99014.97;;;9.34;89.78
78485;BME280;67773;50.806;8.776;2023-04-22T02:35:36;99024.50;;;9.36;90.04
78485;BME280;67773;50.806;8.776;2023-04-22T02:38:02;99001.56;;;9.21;89.85
78485;BME280;67773;50.806;8.776;2023-04-22T02:40:27;99026.06;;;9.40;89.49
78485;BME280;67773;50.806;8.776;2023-04-22T02:42:52;99022.66;;;9.38;89.78
78485;BME280;67773;50.806;8.776;2023-04-22T02:45:18;99015.13;;;9.31;90.17
78485;BME280;67773;50.806;8.776;2023-04-22T02:47:43;99022.31;;;9.29;90.03
78485;BME280;67773;50.806;8.776;2023-04-22T02:50:09;99017.19;;;9.25;90.02
78485;BME280;67773;50.806;8.776;2023-04-22T02:52:34;99019.91;;;9.24;90.17
78485;BME280;67773;50.806;8.776;2023-04-22T02:55:00;99016.41;;;9.23;90.01
78485;BME280;67773;50.806;8.776;2023-04-22T02:57:25;99018.22;;;9.23;90.08
78485;BME280;67773;50.806;8.776;2023-04-22T02:59:52;99020.84;;;9.23;90.16
78485;BME280;67773;50.806;8.776;2023-04-22T03:02:17;99020.84;;;9.23;90.09
78485;BME280;67773;50.806;8.776;2023-04-22T03:04:43;99015.84;;;9.18;90.23
78485;BME280;67773;50.806;8.776;2023-04-22T03:07:08;99005.47;;;9.14;90.03
78485;BME280;67773;50.806;8.776;2023-04-22T03:09:33;99009.84;;;9.15;90.07
78485;BME280;67773;50.806;8.776;2023-04-22T03:11:58;98998.56;;;9.11;90.20
78485;BME280;67773;50.806;8.776;2023-04-22T03:14:24;99004.72;;;9.12;89.95
78485;BME280;67773;50.806;8.776;2023-04-22T03:16:49;98991.56;;;9.10;89.54
78485;BME280;67773;50.806;8.776;2023-04-22T03:19:14;98994.97;;;9.12;89.70
78485;BME280;67773;50.806;8.776;2023-04-22T03:21:40;98989.69;;;9.12;89.34
78485;BME280;67773;50.806;8.776;2023-04-22T03:24:06;98994.03;;;9.13;89.40
78485;BME280;67773;50.806;8.776;2023-04-22T03:26:31;98995.16;;;9.09;89.80
78485;BME280;67773;50.806;8.776;2023-04-22T03:28:56;98997.09;;;9.06;89.66
78485;BME280;67773;50.806;8.776;2023-04-22T03:31:22;98998.22;;;9.02;90.03
78485;BME280;67773;50.806;8.776;2023-04-22T03:33:47;98997.28;;;9.03;90.11
78485;BME280;67773;50.806;8.776;2023-04-22T03:36:12;98992.94;;;9.02;89.95
78485;BME280;67773;50.806;8.776;2023-04-22T03:38:37;98997.38;;;9.01;89.88
78485;BME280;67773;50.806;8.776;2023-04-22T03:41:03;98996.69;;;8.98;89.82
78485;BME280;67773;50.806;8.776;2023-04-22T03:43:28;98986.44;;;8.91;89.53
78485;BME280;67773;50.806;8.776;2023-04-22T03:45:53;98985.59;;;8.91;89.91
78485;BME280;67773;50.806;8.776;2023-04-22T03:48:19;98966.47;;;8.86;89.90
78485;BME280;67773;50.806;8.776;2023-04-22T03:50:44;98966.78;;;8.95;89.43
78485;BME280;67773;50.806;8.776;2023-04-22T03:53:09;98962.34;;;8.96;89.50
78485;BME280;67773;50.806;8.776;2023-04-22T03:55:35;98966.88;;;8.94;89.28
78485;BME280;67773;50.806;8.776;2023-04-22T03:58:00;98952.22;;;8.88;89.24
78485;BME280;67773;50.806;8.776;2023-04-22T04:00:25;98984.91;;;9.03;89.12
78485;BME280;67773;50.806;8.776;2023-04-22T04:02:51;98984.47;;;8.95;89.38
78485;BME280;67773;50.806;8.776;2023-04-22T04:05:16;98977.97;;;8.85;89.59
78485;BME280;67773;50.806;8.776;2023-04-22T04:07:42;98987.88;;;8.81;90.00
78485;BME280;67773;50.806;8.776;2023-04-22T04:10:09;98980.78;;;8.82;89.96
78485;BME280;67773;50.806;8.776;2023-04-22T04:12:34;98986.94;;;8.82;90.13
78485;BME280;67773;50.806;8.776;2023-04-22T04:15:00;98988.50;;;8.86;90.07
78485;BME280;67773;50.806;8.776;2023-04-22T04:17:25;98992.22;;;8.82;90.28
78485;BME280;67773;50.806;8.776;2023-04-22T04:19:53;98990.69;;;8.78;90.07
78485;BME280;67773;50.806;8.776;2023-04-22T04:22:21;98985.72;;;8.72;90.26
78485;BME280;67773;50.806;8.776;2023-04-22T04:24:51;99003.16;;;8.76;90.00
78485;BME280;67773;50.806;8.776;2023-04-22T04:27:20;99005.81;;;8.76;90.12
78485;BME280;67773;50.806;8.776;2023-04-22T04:29:47;99000.44;;;8.78;90.34
78485;BME280;67773;50.806;8.776;2023-04-22T04:32:13;99005.88;;;8.75;90.12
78485;BME280;67773;50.806;8.776;2023-04-22T04:34:39;98999.91;;;8.71;90.05
78485;BME280;67773;50.806;8.776;2023-04-22T04:37:04;98997.34;;;8.70;90.40
78485;BME280;67773;50.806;8.776;2023-04-22T04:39:30;98996.50;;;8.69;90.35
78485;BME280;67773;50.806;8.776;2023-04-22T04:41:55;98996.56;;;8.67;90.25
78485;BME280;67773;50.806;8.776;2023-04-22T04:44:22;98976.94;;;8.56;90.36
78485;BME280;67773;50.806;8.776;2023-04-22T04:46:48;98989.31;;;8.71;90.03
78485;BME280;67773;50.806;8.776;2023-04-22T04:49:14;98987.34;;;8.75;90.05
78485;BME280;67773;50.806;8.776;2023-04-22T04:51:40;98990.00;;;8.75;90.00
78485;BME280;67773;50.806;8.776;2023-04-22T04:54:06;98972.84;;;8.66;90.19
78485;BME280;67773;50.806;8.776;2023-04-22T04:56:31;98984.69;;;8.75;90.18
78485;BME280;67773;50.806;8.776;2023-04-22T04:58:56;98977.97;;;8.69;90.34
78485;BME280;67773;50.806;8.776;2023-04-22T05:01:22;98987.47;;;8.89;89.51
78485;BME280;67773;50.806;8.776;2023-04-22T05:03:47;98983.53;;;8.96;89.30
78485;BME280;67773;50.806;8.776;2023-04-22T05:06:12;98981.41;;;9.03;89.25
78485;BME280;67773;50.806;8.776;2023-04-22T05:08:38;98988.31;;;9.05;89.22
78485;BME280;67773;50.806;8.776;2023-04-22T05:11:03;98987.97;;;9.11;89.20
78485;BME280;67773;50.806;8.776;2023-04-22T05:13:28;98990.44;;;9.14;88.99
78485;BME280;67773;50.806;8.776;2023-04-22T05:15:54;98986.63;;;9.20;88.80
78485;BME280;67773;50.806;8.776;2023-04-22T05:18:19;98989.06;;;9.23;89.34
78485;BME280;67773;50.806;8.776;2023-04-22T05:20:44;98989.84;;;9.25;88.50
78485;BME280;67773;50.806;8.776;2023-04-22T05:23:10;98993.19;;;9.29;88.99
78485;BME280;67773;50.806;8.776;2023-04-22T05:25:35;98995.13;;;9.25;88.14
78485;BME280;67773;50.806;8.776;2023-04-22T05:28:00;98992.50;;;9.25;88.24
78485;BME280;67773;50.806;8.776;2023-04-22T05:30:26;98989.84;;;9.25;88.46
78485;BME280;67773;50.806;8.776;2023-04-22T05:32:51;98988.13;;;9.24;88.41
78485;BME280;67773;50.806;8.776;2023-04-22T05:35:16;98974.84;;;9.10;88.25
78485;BME280;67773;50.806;8.776;2023-04-22T05:37:42;98991.22;;;9.32;88.27
78485;BME280;67773;50.806;8.776;2023-04-22T05:40:07;98993.16;;;9.44;87.84
78485;BME280;67773;50.806;8.776;2023-04-22T05:42:33;98992.06;;;9.48;87.30
78485;BME280;67773;50.806;8.776;2023-04-22T05:44:58;98984.16;;;9.47;87.07
78485;BME280;67773;50.806;8.776;2023-04-22T05:47:24;98991.28;;;9.46;87.41
78485;BME280;67773;50.806;8.776;2023-04-22T05:49:49;98988.19;;;9.54;87.10
78485;BME280;67773;50.806;8.776;2023-04-22T05:52:14;98992.34;;;9.58;87.06
78485;BME280;67773;50.806;8.776;2023-04-22T05:54:40;98994.00;;;9.61;87.48
78485;BME280;67773;50.806;8.776;2023-04-22T05:57:05;98988.31;;;9.67;86.74
78485;BME280;67773;50.806;8.776;2023-04-22T05:59:31;98986.09;;;9.75;86.20
78485;BME280;67773;50.806;8.776;2023-04-22T06:01:56;98988.75;;;9.75;86.25
78485;BME280;67773;50.806;8.776;2023-04-22T06:04:22;98990.94;;;9.82;85.89
78485;BME280;67773;50.806;8.776;2023-04-22T06:06:47;98992.38;;;9.88;85.66
78485;BME280;67773;50.806;8.776;2023-04-22T06:09:12;98994.16;;;9.88;85.21
78485;BME280;67773;50.806;8.776;2023-04-22T06:11:38;98987.47;;;9.96;85.43
78485;BME280;67773;50.806;8.776;2023-04-22T06:14:04;99001.78;;;10.08;85.03
78485;BME280;67773;50.806;8.776;2023-04-22T06:16:29;98982.03;;;10.13;84.72
78485;BME280;67773;50.806;8.776;2023-04-22T06:18:55;98990.03;;;10.28;85.19
78485;BME280;67773;50.806;8.776;2023-04-22T06:21:20;98997.22;;;10.40;84.38
78485;BME280;67773;50.806;8.776;2023-04-22T06:23:45;98972.81;;;10.35;83.95
78485;BME280;67773;50.806;8.776;2023-04-22T06:26:11;98986.81;;;10.51;83.75
78485;BME280;67773;50.806;8.776;2023-04-22T06:28:37;98991.75;;;10.57;82.40
78485;BME280;67773;50.806;8.776;2023-04-22T06:31:02;98989.47;;;10.65;83.26
78485;BME280;67773;50.806;8.776;2023-04-22T06:33:27;98989.88;;;10.74;82.67
78485;BME280;67773;50.806;8.776;2023-04-22T06:35:53;98991.66;;;10.87;81.53
78485;BME280;67773;50.806;8.776;2023-04-22T06:38:18;98992.19;;;11.07;81.37
78485;BME280;67773;50.806;8.776;2023-04-22T06:40:43;98993.03;;;11.07;81.06
78485;BME280;67773;50.806;8.776;2023-04-22T06:43:08;98988.16;;;11.14;80.52
78485;BME280;67773;50.806;8.776;2023-04-22T06:45:34;98987.69;;;11.21;81.03
78485;BME280;67773;50.806;8.776;2023-04-22T06:47:59;98988.50;;;11.36;80.83
78485;BME280;67773;50.806;8.776;2023-04-22T06:50:24;98991.13;;;11.50;79.87
78485;BME280;67773;50.806;8.776;2023-04-22T06:52:50;98985.47;;;11.55;79.47
78485;BME280;67773;50.806;8.776;2023-04-22T06:55:15;98984.59;;;11.69;79.29
78485;BME280;67773;50.806;8.776;2023-04-22T06:57:40;98977.88;;;11.76;78.30
78485;BME280;67773;50.806;8.776;2023-04-22T07:00:06;98973.56;;;11.88;78.16
78485;BME280;67773;50.806;8.776;2023-04-22T07:02:34;98973.19;;;11.94;77.64
78485;BME280;67773;50.806;8.776;2023-04-22T07:05:00;98975.09;;;11.92;78.88
78485;BME280;67773;50.806;8.776;2023-04-22T07:07:25;98950.59;;;11.87;77.29
78485;BME280;67773;50.806;8.776;2023-04-22T07:09:51;98960.63;;;12.08;77.73
78485;BME280;67773;50.806;8.776;2023-04-22T07:12:16;98966.50;;;12.26;77.04
78485;BME280;67773;50.806;8.776;2023-04-22T07:14:45;98952.56;;;12.35;76.93
78485;BME280;67773;50.806;8.776;2023-04-22T07:17:11;98963.19;;;12.48;76.22
78485;BME280;67773;50.806;8.776;2023-04-22T07:19:37;98976.94;;;12.55;76.54
78485;BME280;67773;50.806;8.776;2023-04-22T07:22:03;98954.47;;;12.59;76.14
78485;BME280;67773;50.806;8.776;2023-04-22T07:24:28;98959.53;;;12.87;75.08
78485;BME280;67773;50.806;8.776;2023-04-22T07:26:54;98961.84;;;13.05;74.00
78485;BME280;67773;50.806;8.776;2023-04-22T07:29:20;98950.59;;;13.12;73.43
78485;BME280;67773;50.806;8.776;2023-04-22T07:31:45;98945.78;;;13.30;73.02
78485;BME280;67773;50.806;8.776;2023-04-22T07:34:11;98952.88;;;13.66;71.54
78485;BME280;67773;50.806;8.776;2023-04-22T07:36:36;98950.84;;;13.81;69.47
78485;BME280;67773;50.806;8.776;2023-04-22T07:39:02;98944.41;;;14.07;69.25
78485;BME280;67773;50.806;8.776;2023-04-22T07:41:28;98935.91;;;14.25;68.76
78485;BME280;67773;50.806;8.776;2023-04-22T07:43:53;98938.41;;;14.50;66.91
78485;BME280;67773;50.806;8.776;2023-04-22T07:46:19;98939.00;;;14.54;65.40
78485;BME280;67773;50.806;8.776;2023-04-22T07:48:45;98947.75;;;14.56;65.26
78485;BME280;67773;50.806;8.776;2023-04-22T07:51:10;98940.25;;;14.50;66.79
78485;BME280;67773;50.806;8.776;2023-04-22T07:53:35;98943.06;;;14.24;64.77
78485;BME280;67773;50.806;8.776;2023-04-22T07:56:01;98945.25;;;14.08;66.25
78485;BME280;67773;50.806;8.776;2023-04-22T07:58:27;98947.53;;;14.01;67.33
78485;BME280;67773;50.806;8.776;2023-04-22T08:00:52;98942.72;;;13.82;67.36
78485;BME280;67773;50.806;8.776;2023-04-22T08:03:17;98942.13;;;13.79;68.65
78485;BME280;67773;50.806;8.776;2023-04-22T08:05:43;98940.28;;;13.68;69.09
78485;BME280;67773;50.806;8.776;2023-04-22T08:08:08;98945.41;;;13.82;68.88
78485;BME280;67773;50.806;8.776;2023-04-22T08:10:33;98934.31;;;14.00;69.21
78485;BME280;67773;50.806;8.776;2023-04-22T08:12:59;98930.22;;;14.18;66.39
78485;BME280;67773;50.806;8.776;2023-04-22T08:15:24;98930.97;;;14.31;64.96
78485;BME280;67773;50.806;8.776;2023-04-22T08:17:50;98930.13;;;14.42;65.93
78485;BME280;67773;50.806;8.776;2023-04-22T08:20:15;98933.06;;;14.61;64.91
78485;BME280;67773;50.806;8.776;2023-04-22T08:22:42;98924.91;;;14.85;64.08
78485;BME280;67773;50.806;8.776;2023-04-22T08:25:08;98934.44;;;15.21;63.48
78485;BME280;67773;50.806;8.776;2023-04-22T08:27:34;98922.88;;;15.21;61.37
78485;BME280;67773;50.806;8.776;2023-04-22T08:30:00;98921.94;;;15.54;61.14
78485;BME280;67773;50.806;8.776;2023-04-22T08:32:25;98925.22;;;15.90;60.44
78485;BME280;67773;50.806;8.776;2023-04-22T08:34:50;98934.16;;;16.21;59.73
78485;BME280;67773;50.806;8.776;2023-04-22T08:37:16;98932.63;;;16.49;59.78
78485;BME280;67773;50.806;8.776;2023-04-22T08:39:41;98931.47;;;16.72;57.85
78485;BME280;67773;50.806;8.776;2023-04-22T08:42:07;98925.06;;;16.63;56.22
78485;BME280;67773;50.806;8.776;2023-04-22T08:44:34;98929.69;;;16.82;55.30
78485;BME280;67773;50.806;8.776;2023-04-22T08:47:00;98934.19;;;16.82;55.74
78485;BME280;67773;50.806;8.776;2023-04-22T08:49:26;98935.84;;;16.73;56.33
78485;BME280;67773;50.806;8.776;2023-04-22T08:51:54;98937.31;;;16.35;56.68
78485;BME280;67773;50.806;8.776;2023-04-22T08:54:20;98938.38;;;16.02;57.15
78485;BME280;67773;50.806;8.776;2023-04-22T08:56:45;98948.19;;;15.92;58.10
78485;BME280;67773;50.806;8.776;2023-04-22T08:59:14;98939.50;;;16.00;58.09
78485;BME280;67773;50.806;8.776;2023-04-22T09:01:40;98935.47;;;16.26;57.85
78485;BME280;67773;50.806;8.776;2023-04-22T09:04:08;98935.50;;;16.66;55.99
78485;BME280;67773;50.806;8.776;2023-04-22T09:06:34;98929.69;;;16.82;56.25
78485;BME280;67773;50.806;8.776;2023-04-22T09:08:59;98927.53;;;17.26;56.51
78485;BME280;67773;50.806;8.776;2023-04-22T09:11:26;98926.56;;;17.46;54.26
78485;BME280;67773;50.806;8.776;2023-04-22T09:13:53;98914.59;;;17.89;53.84
78485;BME280;67773;50.806;8.776;2023-04-22T09:16:19;98903.59;;;17.82;52.69
78485;BME280;67773;50.806;8.776;2023-04-22T09:18:44;98899.00;;;18.12;52.24
78485;BME280;67773;50.806;8.776;2023-04-22T09:21:12;98892.16;;;21.45;43.67
78485;BME280;67773;50.806;8.776;2023-04-22T09:23:49;98886.84;;;24.12;37.84
78485;BME280;67773;50.806;8.776;2023-04-22T09:26:18;98876.06;;;24.57;36.92
78485;BME280;67773;50.806;8.776;2023-04-22T09:28:54;98877.56;;;25.03;36.21
78485;BME280;67773;50.806;8.776;2023-04-22T09:31:22;98873.38;;;26.92;32.65
78485;BME280;67773;50.806;8.776;2023-04-22T09:33:58;98870.84;;;27.31;30.96
78485;BME280;67773;50.806;8.776;2023-04-22T09:36:28;98871.41;;;28.28;29.22
78485;BME280;67773;50.806;8.776;2023-04-22T09:39:02;98869.97;;;29.10;28.78
78485;BME280;67773;50.806;8.776;2023-04-22T09:41:32;98871.63;;;29.55;29.06
78485;BME280;67773;50.806;8.776;2023-04-22T09:43:59;98865.41;;;30.73;25.88
78485;BME280;67773;50.806;8.776;2023-04-22T09:46:26;98869.44;;;30.70;24.37
78485;BME280;67773;50.806;8.776;2023-04-22T09:48:54;98875.16;;;29.18;26.97
78485;BME280;67773;50.806;8.776;2023-04-22T09:51:20;98878.22;;;29.41;26.38
78485;BME280;67773;50.806;8.776;2023-04-22T09:54:05;98870.00;;;29.48;25.91
78485;BME280;67773;50.806;8.776;2023-04-22T09:56:52;98866.50;;;28.63;27.32
78485;BME280;67773;50.806;8.776;2023-04-22T09:59:24;98867.88;;;27.26;29.98
78485;BME280;67773;50.806;8.776;2023-04-22T10:02:00;98864.94;;;26.87;29.93
78485;BME280;67773;50.806;8.776;2023-04-22T10:04:28;98868.75;;;27.47;29.65
78485;BME280;67773;50.806;8.776;2023-04-22T10:06:54;98860.25;;;27.96;27.33
78485;BME280;67773;50.806;8.776;2023-04-22T10:09:21;98867.16;;;27.04;28.64
78485;BME280;67773;50.806;8.776;2023-04-22T10:11:49;98860.72;;;26.43;29.38
78485;BME280;67773;50.806;8.776;2023-04-22T10:14:16;98858.16;;;27.04;28.70
78485;BME280;67773;50.806;8.776;2023-04-22T10:16:44;98857.47;;;27.63;28.07
78485;BME280;67773;50.806;8.776;2023-04-22T10:19:15;98862.56;;;27.73;27.37
78485;BME280;67773;50.806;8.776;2023-04-22T10:21:41;98858.78;;;28.46;26.86
78485;BME280;67773;50.806;8.776;2023-04-22T10:24:14;98864.59;;;28.70;26.66
78485;BME280;67773;50.806;8.776;2023-04-22T10:29:21;98861.75;;;27.18;27.59
78485;BME280;67773;50.806;8.776;2023-04-22T10:34:30;98854.41;;;27.18;27.84
78485;BME280;67773;50.806;8.776;2023-04-22T10:37:06;98844.16;;;26.72;29.03
78485;BME280;67773;50.806;8.776;2023-04-22T10:39:32;98866.03;;;25.38;30.45
78485;BME280;67773;50.806;8.776;2023-04-22T10:42:12;98852.19;;;24.37;32.10
78485;BME280;67773;50.806;8.776;2023-04-22T10:44:51;98848.31;;;23.33;34.33
78485;BME280;67773;50.806;8.776;2023-04-22T10:52:34;98854.22;;;20.88;39.73
78485;BME280;67773;50.806;8.776;2023-04-22T10:54:59;98854.47;;;21.19;39.10
78485;BME280;67773;50.806;8.776;2023-04-22T10:57:31;98849.69;;;21.04;38.82
78485;BME280;67773;50.806;8.776;2023-04-22T11:02:45;98845.06;;;21.31;38.83
78485;BME280;67773;50.806;8.776;2023-04-22T11:05:22;98836.47;;;21.84;37.66
78485;BME280;67773;50.806;8.776;2023-04-22T11:07:49;98835.56;;;22.41;38.13
78485;BME280;67773;50.806;8.776;2023-04-22T11:10:37;98828.47;;;22.87;36.04
78485;BME280;67773;50.806;8.776;2023-04-22T11:13:12;98816.66;;;23.57;35.08
78485;BME280;67773;50.806;8.776;2023-04-22T11:15:39;98836.72;;;24.23;32.86
78485;BME280;67773;50.806;8.776;2023-04-22T11:18:13;98826.53;;;25.35;31.32
78485;BME280;67773;50.806;8.776;2023-04-22T11:20:38;98831.50;;;24.66;31.57
78485;BME280;67773;50.806;8.776;2023-04-22T11:23:03;98828.88;;;24.13;31.99
78485;BME280;67773;50.806;8.776;2023-04-22T11:25:29;98832.81;;;25.36;30.13
78485;BME280;67773;50.806;8.776;2023-04-22T11:27:55;98821.78;;;27.45;27.69
78485;BME280;67773;50.806;8.776;2023-04-22T11:30:23;98794.69;;;29.77;24.26
78485;BME280;67773;50.806;8.776;2023-04-22T11:32:50;98795.47;;;32.14;21.86
78485;BME280;67773;50.806;8.776;2023-04-22T11:35:24;98794.34;;;33.14;20.49
78485;BME280;67773;50.806;8.776;2023-04-22T11:37:53;98802.59;;;31.38;20.66
78485;BME280;67773;50.806;8.776;2023-04-22T11:42:56;98801.66;;;27.39;26.34
78485;BME280;67773;50.806;8.776;2023-04-22T11:45:22;98801.41;;;27.27;26.19
78485;BME280;67773;50.806;8.776;2023-04-22T11:47:49;98798.28;;;27.24;25.75
78485;BME280;67773;50.806;8.776;2023-04-22T11:50:16;98798.72;;;28.20;25.91
78485;BME280;67773;50.806;8.776;2023-04-22T11:55:22;98795.88;;;30.12;21.72
78485;BME280;67773;50.806;8.776;2023-04-22T11:58:25;98785.31;;;32.38;19.70
78485;BME280;67773;50.806;8.776;2023-04-22T12:00:52;98804.53;;;31.19;19.90
78485;BME280;67773;50.806;8.776;2023-04-22T12:03:23;98801.91;;;29.33;22.34
78485;BME280;67773;50.806;8.776;2023-04-22T12:05:52;98793.47;;;29.03;21.97
78485;BME280;67773;50.806;8.776;2023-04-22T12:08:20;98791.13;;;31.11;20.33
78485;BME280;67773;50.806;8.776;2023-04-22T12:10:49;98785.84;;;31.58;20.20
78485;BME280;67773;50.806;8.776;2023-04-22T12:16:05;98781.69;;;30.95;19.71
78485;BME280;67773;50.806;8.776;2023-04-22T12:18:35;98788.81;;;28.59;23.08
78485;BME280;67773;50.806;8.776;2023-04-22T12:21:10;98790.53;;;28.40;22.46
78485;BME280;67773;50.806;8.776;2023-04-22T12:23:54;98771.66;;;29.28;21.75
78485;BME280;67773;50.806;8.776;2023-04-22T12:26:22;98769.06;;;29.08;22.83
78485;BME280;67773;50.806;8.776;2023-04-22T12:28:49;98771.22;;;28.22;22.96
78485;BME280;67773;50.806;8.776;2023-04-22T12:31:15;98768.91;;;30.34;20.28
78485;BME280;67773;50.806;8.776;2023-04-22T12:33:41;98766.38;;;31.18;19.57
78485;BME280;67773;50.806;8.776;2023-04-22T12:36:07;98760.78;;;31.66;19.28
78485;BME280;67773;50.806;8.776;2023-04-22T12:38:33;98753.97;;;30.30;20.53
78485;BME280;67773;50.806;8.776;2023-04-22T12:40:58;98753.94;;;31.34;19.68
78485;BME280;67773;50.806;8.776;2023-04-22T12:43:24;98746.53;;;31.34;19.71
78485;BME280;67773;50.806;8.776;2023-04-22T12:45:49;98743.81;;;31.57;19.60
78485;BME280;67773;50.806;8.776;2023-04-22T12:48:15;98756.13;;;30.03;21.06
78485;BME280;67773;50.806;8.776;2023-04-22T12:50:41;98748.38;;;30.92;21.02
78485;BME280;67773;50.806;8.776;2023-04-22T12:53:06;98746.13;;;31.72;19.34
78485;BME280;67773;50.806;8.776;2023-04-22T12:55:32;98759.78;;;32.89;19.97
78485;BME280;67773;50.806;8.776;2023-04-22T12:57:57;98770.03;;;30.27;20.30
78485;BME280;67773;50.806;8.776;2023-04-22T13:00:23;98765.22;;;27.80;22.34
78485;BME280;67773;50.806;8.776;2023-04-22T13:02:49;98767.19;;;28.44;22.65
78485;BME280;67773;50.806;8.776;2023-04-22T13:05:17;98756.28;;;29.33;22.19
78485;BME280;67773;50.806;8.776;2023-04-22T13:07:43;98773.88;;;29.44;21.44
78485;BME280;67773;50.806;8.776;2023-04-22T13:10:10;98763.72;;;30.01;20.94
78485;BME280;67773;50.806;8.776;2023-04-22T13:12:35;98765.66;;;30.92;20.02
78485;BME280;67773;50.806;8.776;2023-04-22T13:15:01;98764.84;;;30.18;21.14
78485;BME280;67773;50.806;8.776;2023-04-22T13:17:27;98760.41;;;29.49;22.01
78485;BME280;67773;50.806;8.776;2023-04-22T13:19:52;98767.09;;;30.95;21.29
78485;BME280;67773;50.806;8.776;2023-04-22T13:22:18;98770.88;;;30.64;20.07